sensor_id;sensor_type;location;lat;lon;timestamp;pressure;altitude;pressure_sealevel;temperature;humidity
60583;BME280;46415;47.536;19.066;2023-09-12T00:00:51;-18719.97;;;18.11;100.00
60583;BME280;46415;47.536;19.066;2023-09-12T00:04:04;-18719.97;;;18.11;100.00
60583;BME280;46415;47.536;19.066;2023-09-12T00:07:11;-18719.00;;;18.08;100.00
60583;BME280;46415;47.536;19.066;2023-09-12T00:10:23;-18717.78;;;18.03;100.00
60583;BME280;46415;47.536;19.066;2023-09-12T00:13:35;-18716.44;;;17.98;100.00
60583;BME280;46415;47.536;19.066;2023-09-12T00:16:50;-18715.75;;;17.95;100.00
60583;BME280;46415;47.536;19.066;2023-09-12T00:20:04;-18713.97;;;17.89;100.00
60583;BME280;46415;47.536;19.066;2023-09-12T00:23:17;-18714.53;;;17.91;100.00
60583;BME280;46415;47.536;19.066;2023-09-12T00:26:31;-18717.09;;;18.01;100.00
60583;BME280;46415;47.536;19.066;2023-09-12T00:29:42;-18717.53;;;18.02;100.00
60583;BME280;46415;47.536;19.066;2023-09-12T00:32:53;-18718.06;;;18.04;100.00
60583;BME280;46415;47.536;19.066;2023-09-12T00:36:05;-18719.97;;;18.11;100.00
60583;BME280;46415;47.536;19.066;2023-09-12T00:39:17;-18718.59;;;18.06;100.00
60583;BME280;46415;47.536;19.066;2023-09-12T00:42:30;-18718.06;;;18.04;100.00
60583;BME280;46415;47.536;19.066;2023-09-12T00:45:43;-18717.94;;;18.04;100.00
60583;BME280;46415;47.536;19.066;2023-09-12T00:48:55;-18717.78;;;18.03;100.00
60583;BME280;46415;47.536;19.066;2023-09-12T00:52:07;-18716.56;;;17.99;100.00
60583;BME280;46415;47.536;19.066;2023-09-12T00:55:22;-18712.63;;;17.84;100.00
60583;BME280;46415;47.536;19.066;2023-09-12T00:58:32;-18710.19;;;17.75;100.00
60583;BME280;46415;47.536;19.066;2023-09-12T01:01:45;-18707.84;;;17.66;100.00
60583;BME280;46415;47.536;19.066;2023-09-12T01:05:01;-18706.78;;;17.62;100.00
60583;BME280;46415;47.536;19.066;2023-09-12T01:08:13;-18705.94;;;17.59;100.00
60583;BME280;46415;47.536;19.066;2023-09-12T01:11:23;-18705.53;;;17.58;100.00
60583;BME280;46415;47.536;19.066;2023-09-12T01:14:36;-18705.00;;;17.55;100.00
60583;BME280;46415;47.536;19.066;2023-09-12T01:17:50;-18705.13;;;17.56;100.00
60583;BME280;46415;47.536;19.066;2023-09-12T01:21:13;-18705.00;;;17.55;100.00
60583;BME280;46415;47.536;19.066;2023-09-12T01:27:57;-18702.69;;;17.47;100.00
60583;BME280;46415;47.536;19.066;2023-09-12T01:31:10;-18702.00;;;17.44;100.00
60583;BME280;46415;47.536;19.066;2023-09-12T01:34:25;-18701.19;;;17.41;100.00
60583;BME280;46415;47.536;19.066;2023-09-12T01:37:34;-18701.88;;;17.44;100.00
60583;BME280;46415;47.536;19.066;2023-09-12T01:40:50;-18701.88;;;17.44;100.00
60583;BME280;46415;47.536;19.066;2023-09-12T01:44:03;-18699.56;;;17.35;100.00
60583;BME280;46415;47.536;19.066;2023-09-12T01:47:18;-18699.00;;;17.33;100.00
60583;BME280;46415;47.536;19.066;2023-09-12T01:50:28;-18697.50;;;17.28;100.00
60583;BME280;46415;47.536;19.066;2023-09-12T01:53:40;-18695.47;;;17.20;100.00
60583;BME280;46415;47.536;19.066;2023-09-12T01:56:53;-18694.09;;;17.15;100.00
60583;BME280;46415;47.536;19.066;2023-09-12T02:00:06;-18693.44;;;17.12;100.00
60583;BME280;46415;47.536;19.066;2023-09-12T02:03:18;-18692.47;;;17.09;100.00
60583;BME280;46415;47.536;19.066;2023-09-12T02:06:30;-18691.78;;;17.06;100.00
60583;BME280;46415;47.536;19.066;2023-09-12T02:09:42;-18691.13;;;17.04;100.00
60583;BME280;46415;47.536;19.066;2023-09-12T02:12:56;-18690.44;;;17.01;100.00
60583;BME280;46415;47.536;19.066;2023-09-12T02:16:08;-18689.47;;;16.98;100.00
60583;BME280;46415;47.536;19.066;2023-09-12T02:19:24;-18688.94;;;16.96;100.00
60583;BME280;46415;47.536;19.066;2023-09-12T02:22:35;-18688.38;;;16.94;100.00
60583;BME280;46415;47.536;19.066;2023-09-12T02:25:51;-18687.56;;;16.91;100.00
60583;BME280;46415;47.536;19.066;2023-09-12T02:29:10;-18687.56;;;16.91;100.00
60583;BME280;46415;47.536;19.066;2023-09-12T02:32:22;-18687.56;;;16.91;100.00
60583;BME280;46415;47.536;19.066;2023-09-12T02:35:33;-18687.16;;;16.89;100.00
60583;BME280;46415;47.536;19.066;2023-09-12T02:38:44;-18685.41;;;16.83;100.00
60583;BME280;46415;47.536;19.066;2023-09-12T02:41:56;-18684.56;;;16.80;100.00
60583;BME280;46415;47.536;19.066;2023-09-12T02:45:08;-18683.75;;;16.77;100.00
60583;BME280;46415;47.536;19.066;2023-09-12T02:48:21;-18683.47;;;16.76;100.00
60583;BME280;46415;47.536;19.066;2023-09-12T02:51:31;-18683.34;;;16.75;100.00
60583;BME280;46415;47.536;19.066;2023-09-12T02:54:43;-18682.81;;;16.73;100.00
60583;BME280;46415;47.536;19.066;2023-09-12T02:57:53;-18682.41;;;16.71;100.00
60583;BME280;46415;47.536;19.066;2023-09-12T03:01:05;-18681.84;;;16.69;100.00
60583;BME280;46415;47.536;19.066;2023-09-12T03:04:18;-18680.63;;;16.65;100.00
60583;BME280;46415;47.536;19.066;2023-09-12T03:07:26;-18678.84;;;16.58;100.00
60583;BME280;46415;47.536;19.066;2023-09-12T03:10:41;-18678.31;;;16.56;100.00
60583;BME280;46415;47.536;19.066;2023-09-12T03:13:54;-18678.31;;;16.56;100.00
60583;BME280;46415;47.536;19.066;2023-09-12T03:17:09;-18678.31;;;16.56;100.00
60583;BME280;46415;47.536;19.066;2023-09-12T03:20:22;-18677.50;;;16.53;100.00
60583;BME280;46415;47.536;19.066;2023-09-12T03:23:28;-18677.06;;;16.52;100.00
60583;BME280;46415;47.536;19.066;2023-09-12T03:26:40;-18676.81;;;16.51;100.00
60583;BME280;46415;47.536;19.066;2023-09-12T03:29:54;-18674.91;;;16.44;100.00
60583;BME280;46415;47.536;19.066;2023-09-12T03:33:10;-18673.66;;;16.39;100.00
60583;BME280;46415;47.536;19.066;2023-09-12T03:36:23;-18673.66;;;16.39;100.00
60583;BME280;46415;47.536;19.066;2023-09-12T03:39:35;-18673.94;;;16.40;100.00
60583;BME280;46415;47.536;19.066;2023-09-12T03:42:51;-18673.00;;;16.37;100.00
60583;BME280;46415;47.536;19.066;2023-09-12T03:46:05;-18672.72;;;16.36;100.00
60583;BME280;46415;47.536;19.066;2023-09-12T03:49:21;-18673.13;;;16.37;100.00
60583;BME280;46415;47.536;19.066;2023-09-12T03:52:34;-18672.59;;;16.35;100.00
60583;BME280;46415;47.536;19.066;2023-09-12T03:55:51;-18671.63;;;16.31;100.00
60583;BME280;46415;47.536;19.066;2023-09-12T03:59:01;-18671.22;;;16.30;100.00
60583;BME280;46415;47.536;19.066;2023-09-12T04:02:11;-18670.69;;;16.28;100.00
60583;BME280;46415;47.536;19.066;2023-09-12T04:05:22;-18670.41;;;16.27;100.00
60583;BME280;46415;47.536;19.066;2023-09-12T04:08:31;-18670.00;;;16.25;100.00
60583;BME280;46415;47.536;19.066;2023-09-12T04:11:49;-18671.22;;;16.30;100.00
60583;BME280;46415;47.536;19.066;2023-09-12T04:15:00;-18671.22;;;16.30;100.00
60583;BME280;46415;47.536;19.066;2023-09-12T04:18:13;-18671.22;;;16.30;100.00
60583;BME280;46415;47.536;19.066;2023-09-12T04:21:25;-18669.59;;;16.24;100.00
60583;BME280;46415;47.536;19.066;2023-09-12T04:24:41;-18667.94;;;16.18;100.00
60583;BME280;46415;47.536;19.066;2023-09-12T04:27:52;-18667.53;;;16.16;100.00
60583;BME280;46415;47.536;19.066;2023-09-12T04:31:05;-18667.53;;;16.16;100.00
60583;BME280;46415;47.536;19.066;2023-09-12T04:34:22;-18667.00;;;16.14;100.00
60583;BME280;46415;47.536;19.066;2023-09-12T04:37:32;-18668.37;;;16.19;100.00
60583;BME280;46415;47.536;19.066;2023-09-12T04:40:42;-18670.69;;;16.28;100.00
60583;BME280;46415;47.536;19.066;2023-09-12T04:43:54;-18671.34;;;16.30;100.00
60583;BME280;46415;47.536;19.066;2023-09-12T04:47:10;-18672.03;;;16.33;100.00
60583;BME280;46415;47.536;19.066;2023-09-12T04:50:21;-18673.66;;;16.39;100.00
60583;BME280;46415;47.536;19.066;2023-09-12T04:53:29;-18675.84;;;16.47;100.00
60583;BME280;46415;47.536;19.066;2023-09-12T04:56:47;-18676.41;;;16.49;100.00
60583;BME280;46415;47.536;19.066;2023-09-12T04:59:54;-18678.16;;;16.56;100.00
60583;BME280;46415;47.536;19.066;2023-09-12T05:03:10;-18681.44;;;16.68;100.00
60583;BME280;46415;47.536;19.066;2023-09-12T05:06:19;-18682.66;;;16.72;100.00
60583;BME280;46415;47.536;19.066;2023-09-12T05:09:32;-18684.16;;;16.78;100.00
60583;BME280;46415;47.536;19.066;2023-09-12T05:12:44;-18686.06;;;16.85;100.00
60583;BME280;46415;47.536;19.066;2023-09-12T05:16:00;-18687.84;;;16.92;100.00
60583;BME280;46415;47.536;19.066;2023-09-12T05:19:11;-18690.72;;;17.02;100.00
60583;BME280;46415;47.536;19.066;2023-09-12T05:22:21;-18692.75;;;17.10;100.00
60583;BME280;46415;47.536;19.066;2023-09-12T05:25:29;-18695.75;;;17.21;100.00
60583;BME280;46415;47.536;19.066;2023-09-12T05:28:42;-18698.31;;;17.31;100.00
60583;BME280;46415;47.536;19.066;2023-09-12T05:31:52;-18705.28;;;17.57;100.00
60583;BME280;46415;47.536;19.066;2023-09-12T05:35:02;-18708.41;;;17.68;100.00
60583;BME280;46415;47.536;19.066;2023-09-12T05:38:24;-18714.66;;;17.91;100.00
60583;BME280;46415;47.536;19.066;2023-09-12T05:41:29;-18714.94;;;17.92;100.00
60583;BME280;46415;47.536;19.066;2023-09-12T05:44:36;-18717.53;;;18.02;100.00
60583;BME280;46415;47.536;19.066;2023-09-12T05:47:40;-18721.88;;;18.18;100.00
60583;BME280;46415;47.536;19.066;2023-09-12T05:50:52;-18724.47;;;18.28;100.00
60583;BME280;46415;47.536;19.066;2023-09-12T05:54:06;-18728.53;;;18.43;100.00
60583;BME280;46415;47.536;19.066;2023-09-12T05:57:17;-18734.13;;;18.64;100.00
60583;BME280;46415;47.536;19.066;2023-09-12T06:00:28;-18736.56;;;18.73;100.00
60583;BME280;46415;47.536;19.066;2023-09-12T06:03:42;-18741.72;;;18.92;100.00
60583;BME280;46415;47.536;19.066;2023-09-12T06:06:55;-18745.53;;;19.06;100.00
60583;BME280;46415;47.536;19.066;2023-09-12T06:10:06;-18750.28;;;19.24;100.00
60583;BME280;46415;47.536;19.066;2023-09-12T06:13:15;-18754.22;;;19.39;98.95
60583;BME280;46415;47.536;19.066;2023-09-12T06:16:26;-18755.19;;;19.42;98.90
60583;BME280;46415;47.536;19.066;2023-09-12T06:19:38;-18754.22;;;19.39;98.23
60583;BME280;46415;47.536;19.066;2023-09-12T06:22:48;-18757.75;;;19.52;100.00
60583;BME280;46415;47.536;19.066;2023-09-12T06:25:57;-18759.53;;;19.59;99.91
60583;BME280;46415;47.536;19.066;2023-09-12T06:29:05;-18765.38;;;19.80;97.34
60583;BME280;46415;47.536;19.066;2023-09-12T06:32:14;-18767.00;;;19.86;98.85
60583;BME280;46415;47.536;19.066;2023-09-12T06:35:24;-18771.19;;;20.02;95.99
60583;BME280;46415;47.536;19.066;2023-09-12T06:38:30;-18777.03;;;20.24;95.50
60583;BME280;46415;47.536;19.066;2023-09-12T06:41:38;-18781.13;;;20.39;94.55
60583;BME280;46415;47.536;19.066;2023-09-12T06:44:47;-18786.00;;;20.57;93.37
60583;BME280;46415;47.536;19.066;2023-09-12T06:47:54;-18793.19;;;20.84;93.15
60583;BME280;46415;47.536;19.066;2023-09-12T06:51:04;-18795.63;;;20.93;91.48
60583;BME280;46415;47.536;19.066;2023-09-12T06:54:21;-18799.97;;;21.09;92.19
60583;BME280;46415;47.536;19.066;2023-09-12T06:57:27;-18803.91;;;21.24;90.65
60583;BME280;46415;47.536;19.066;2023-09-12T07:00:32;-18807.97;;;21.39;89.90
60583;BME280;46415;47.536;19.066;2023-09-12T07:03:37;-18812.31;;;21.55;88.45
60583;BME280;46415;47.536;19.066;2023-09-12T07:06:44;-18815.03;;;21.66;92.80
60583;BME280;46415;47.536;19.066;2023-09-12T07:09:49;-18818.56;;;21.79;91.36
60583;BME280;46415;47.536;19.066;2023-09-12T07:12:58;-18825.59;;;22.05;88.48
60583;BME280;46415;47.536;19.066;2023-09-12T07:16:06;-18825.59;;;22.05;92.26
60583;BME280;46415;47.536;19.066;2023-09-12T07:19:15;-18826.41;;;22.08;92.08
60583;BME280;46415;47.536;19.066;2023-09-12T07:22:23;-18830.34;;;22.23;86.00
60583;BME280;46415;47.536;19.066;2023-09-12T07:25:26;-18836.16;;;22.45;83.23
60583;BME280;46415;47.536;19.066;2023-09-12T07:28:34;-18837.13;;;22.48;81.68
60583;BME280;46415;47.536;19.066;2023-09-12T07:31:44;-18838.87;;;22.55;79.77
60583;BME280;46415;47.536;19.066;2023-09-12T07:34:54;-18844.97;;;22.77;81.26
60583;BME280;46415;47.536;19.066;2023-09-12T07:38:05;-18845.38;;;22.79;78.54
60583;BME280;46415;47.536;19.066;2023-09-12T07:41:14;-18849.19;;;22.93;79.08
60583;BME280;46415;47.536;19.066;2023-09-12T07:44:24;-18850.13;;;22.97;80.60
60583;BME280;46415;47.536;19.066;2023-09-12T07:47:32;-18851.88;;;23.03;78.16
60583;BME280;46415;47.536;19.066;2023-09-12T07:50:42;-18859.19;;;23.31;76.40
60583;BME280;46415;47.536;19.066;2023-09-12T07:53:47;-18868.66;;;23.66;74.63
60583;BME280;46415;47.536;19.066;2023-09-12T07:56:54;-18874.06;;;23.86;73.43
60583;BME280;46415;47.536;19.066;2023-09-12T07:59:56;-18878.00;;;24.01;74.04
60583;BME280;46415;47.536;19.066;2023-09-12T08:03:14;-18883.00;;;24.20;72.43
60583;BME280;46415;47.536;19.066;2023-09-12T08:06:25;-18885.44;;;24.29;69.31
60583;BME280;46415;47.536;19.066;2023-09-12T08:09:52;-18888.13;;;24.39;70.21
60583;BME280;46415;47.536;19.066;2023-09-12T08:13:05;-18890.03;;;24.46;67.67
60583;BME280;46415;47.536;19.066;2023-09-12T08:16:16;-18894.09;;;24.61;66.27
60583;BME280;46415;47.536;19.066;2023-09-12T08:19:22;-18900.03;;;24.84;67.27
60583;BME280;46415;47.536;19.066;2023-09-12T08:22:32;-18901.91;;;24.91;65.03
60583;BME280;46415;47.536;19.066;2023-09-12T08:25:39;-18902.72;;;24.94;65.15
60583;BME280;46415;47.536;19.066;2023-09-12T08:28:51;-18907.59;;;25.12;65.60
60583;BME280;46415;47.536;19.066;2023-09-12T08:32:00;-18913.94;;;25.36;65.48
60583;BME280;46415;47.536;19.066;2023-09-12T08:35:16;-18918.00;;;25.51;63.34
60583;BME280;46415;47.536;19.066;2023-09-12T08:38:21;-18921.78;;;25.65;62.25
60583;BME280;46415;47.536;19.066;2023-09-12T08:41:26;-18926.63;;;25.83;61.22
60583;BME280;46415;47.536;19.066;2023-09-12T08:44:34;-18930.81;;;25.99;59.74
60583;BME280;46415;47.536;19.066;2023-09-12T08:47:49;-18934.87;;;26.14;60.36
60583;BME280;46415;47.536;19.066;2023-09-12T08:51:02;-18939.06;;;26.30;59.72
60583;BME280;46415;47.536;19.066;2023-09-12T08:54:17;-18943.22;;;26.46;57.41
60583;BME280;46415;47.536;19.066;2023-09-12T08:57:26;-18949.03;;;26.67;57.94
60583;BME280;46415;47.536;19.066;2023-09-12T09:00:35;-18953.47;;;26.84;56.46
60583;BME280;46415;47.536;19.066;2023-09-12T09:03:43;-18957.94;;;27.01;54.63
60583;BME280;46415;47.536;19.066;2023-09-12T09:06:48;-18960.63;;;27.11;54.20
60583;BME280;46415;47.536;19.066;2023-09-12T09:10:02;-18962.09;;;27.16;54.22
60583;BME280;46415;47.536;19.066;2023-09-12T09:13:15;-18968.31;;;27.40;54.19
60583;BME280;46415;47.536;19.066;2023-09-12T09:16:24;-18973.28;;;27.58;52.01
60583;BME280;46415;47.536;19.066;2023-09-12T09:19:41;-18971.53;;;27.52;47.51
60583;BME280;46415;47.536;19.066;2023-09-12T09:22:58;-18969.91;;;27.46;46.11
60583;BME280;46415;47.536;19.066;2023-09-12T09:26:04;-18971.53;;;27.52;46.00
60583;BME280;46415;47.536;19.066;2023-09-12T09:29:17;-18978.81;;;27.79;45.62
60583;BME280;46415;47.536;19.066;2023-09-12T09:32:23;-18980.28;;;27.85;46.24
60583;BME280;46415;47.536;19.066;2023-09-12T09:35:26;-18982.59;;;27.93;45.37
60583;BME280;46415;47.536;19.066;2023-09-12T09:38:36;-18988.09;;;28.14;45.69
60583;BME280;46415;47.536;19.066;2023-09-12T09:41:48;-18991.75;;;28.28;45.58
60583;BME280;46415;47.536;19.066;2023-09-12T09:44:57;-18997.66;;;28.50;44.89
60583;BME280;46415;47.536;19.066;2023-09-12T09:48:05;-18996.31;;;28.45;43.93
60583;BME280;46415;47.536;19.066;2023-09-12T09:51:17;-19001.03;;;28.63;43.05
60583;BME280;46415;47.536;19.066;2023-09-12T09:54:23;-19003.31;;;28.71;44.62
60583;BME280;46415;47.536;19.066;2023-09-12T09:57:27;-19002.50;;;28.68;43.69
60583;BME280;46415;47.536;19.066;2023-09-12T10:00:36;-19006.94;;;28.85;43.17
60583;BME280;46415;47.536;19.066;2023-09-12T10:03:45;-19005.47;;;28.79;43.31
60583;BME280;46415;47.536;19.066;2023-09-12T10:06:54;-19007.34;;;28.87;43.31
60583;BME280;46415;47.536;19.066;2023-09-12T10:10:02;-19011.66;;;29.03;43.07
60583;BME280;46415;47.536;19.066;2023-09-12T10:13:09;-19018.09;;;29.27;40.71
60583;BME280;46415;47.536;19.066;2023-09-12T10:16:16;-19020.94;;;29.38;40.95
60583;BME280;46415;47.536;19.066;2023-09-12T10:19:28;-19024.56;;;29.51;39.96
60583;BME280;46415;47.536;19.066;2023-09-12T10:22:34;-19022.94;;;29.45;39.99
60583;BME280;46415;47.536;19.066;2023-09-12T10:25:39;-19030.47;;;29.74;39.74
60583;BME280;46415;47.536;19.066;2023-09-12T10:28:49;-19033.69;;;29.86;39.02
60583;BME280;46415;47.536;19.066;2023-09-12T10:31:57;-19038.41;;;30.03;37.73
60583;BME280;46415;47.536;19.066;2023-09-12T10:35:06;-19038.81;;;30.05;38.33
60583;BME280;46415;47.536;19.066;2023-09-12T10:38:14;-19040.81;;;30.13;38.14
60583;BME280;46415;47.536;19.066;2023-09-12T10:41:20;-19041.91;;;30.17;37.81
60583;BME280;46415;47.536;19.066;2023-09-12T10:44:24;-19045.53;;;30.30;37.09
60583;BME280;46415;47.536;19.066;2023-09-12T10:47:31;-19049.41;;;30.45;37.26
60583;BME280;46415;47.536;19.066;2023-09-12T10:50:37;-19047.41;;;30.37;37.71
60583;BME280;46415;47.536;19.066;2023-09-12T10:53:44;-19048.75;;;30.42;36.44
60583;BME280;46415;47.536;19.066;2023-09-12T10:57:02;-19043.38;;;30.22;36.59
60583;BME280;46415;47.536;19.066;2023-09-12T11:00:10;-19043.38;;;30.22;36.82
60583;BME280;46415;47.536;19.066;2023-09-12T11:06:35;-19046.72;;;30.35;37.11
60583;BME280;46415;47.536;19.066;2023-09-12T11:09:43;-19046.59;;;30.34;36.94
60583;BME280;46415;47.536;19.066;2023-09-12T11:12:48;-19049.16;;;30.44;35.73
60583;BME280;46415;47.536;19.066;2023-09-12T11:16:13;-19052.25;;;30.56;36.35
60583;BME280;46415;47.536;19.066;2023-09-12T11:19:18;-19052.78;;;30.58;37.20
60583;BME280;46415;47.536;19.066;2023-09-12T11:25:25;-19057.22;;;30.74;36.37
60583;BME280;46415;47.536;19.066;2023-09-12T11:28:30;-19054.13;;;30.63;36.09
60583;BME280;46415;47.536;19.066;2023-09-12T11:31:36;-19057.22;;;30.74;35.70
60583;BME280;46415;47.536;19.066;2023-09-12T11:34:44;-19058.16;;;30.78;36.06
60583;BME280;46415;47.536;19.066;2023-09-12T11:37:49;-19057.75;;;30.76;36.15
60583;BME280;46415;47.536;19.066;2023-09-12T11:40:52;-19058.00;;;30.77;35.44
60583;BME280;46415;47.536;19.066;2023-09-12T11:43:56;-19056.25;;;30.71;35.89
60583;BME280;46415;47.536;19.066;2023-09-12T11:47:00;-19057.06;;;30.74;36.63
60583;BME280;46415;47.536;19.066;2023-09-12T11:50:09;-19059.47;;;30.83;35.27
60583;BME280;46415;47.536;19.066;2023-09-12T11:53:31;-19055.47;;;30.68;35.15
60583;BME280;46415;47.536;19.066;2023-09-12T11:56:39;-19054.13;;;30.63;35.53
60583;BME280;46415;47.536;19.066;2023-09-12T11:59:44;-19059.63;;;30.83;35.47
60583;BME280;46415;47.536;19.066;2023-09-12T12:02:54;-19057.75;;;30.76;35.27
60583;BME280;46415;47.536;19.066;2023-09-12T12:06:00;-19058.00;;;30.77;36.40
60583;BME280;46415;47.536;19.066;2023-09-12T12:09:05;-19060.97;;;30.89;34.70
60583;BME280;46415;47.536;19.066;2023-09-12T12:12:13;-19056.53;;;30.72;34.56
60583;BME280;46415;47.536;19.066;2023-09-12T12:15:18;-19057.59;;;30.76;35.28
60583;BME280;46415;47.536;19.066;2023-09-12T12:18:21;-19057.75;;;30.76;34.88
60583;BME280;46415;47.536;19.066;2023-09-12T12:21:24;-19056.25;;;30.71;34.66
60583;BME280;46415;47.536;19.066;2023-09-12T12:24:39;-19061.22;;;30.90;34.58
60583;BME280;46415;47.536;19.066;2023-09-12T12:27:45;-19062.84;;;30.96;34.71
60583;BME280;46415;47.536;19.066;2023-09-12T12:30:49;-19063.78;;;30.99;33.91
60583;BME280;46415;47.536;19.066;2023-09-12T12:34:00;-19062.72;;;30.95;34.19
60583;BME280;46415;47.536;19.066;2023-09-12T12:37:29;-19062.16;;;30.93;33.35
60583;BME280;46415;47.536;19.066;2023-09-12T12:40:38;-19062.31;;;30.94;32.68
60583;BME280;46415;47.536;19.066;2023-09-12T12:43:52;-19063.38;;;30.98;33.11
60583;BME280;46415;47.536;19.066;2023-09-12T12:46:57;-19066.19;;;31.08;32.95
60583;BME280;46415;47.536;19.066;2023-09-12T12:50:14;-19065.66;;;31.06;33.23
60583;BME280;46415;47.536;19.066;2023-09-12T12:53:36;-19068.34;;;31.16;33.41
60583;BME280;46415;47.536;19.066;2023-09-12T12:56:58;-19070.34;;;31.24;32.65
60583;BME280;46415;47.536;19.066;2023-09-12T13:00:07;-19071.44;;;31.28;32.52
60583;BME280;46415;47.536;19.066;2023-09-12T13:03:16;-19070.50;;;31.25;32.54
60583;BME280;46415;47.536;19.066;2023-09-12T13:06:25;-19069.69;;;31.21;33.06
60583;BME280;46415;47.536;19.066;2023-09-12T13:09:32;-19074.13;;;31.38;33.26
60583;BME280;46415;47.536;19.066;2023-09-12T13:12:38;-19073.84;;;31.37;31.74
60583;BME280;46415;47.536;19.066;2023-09-12T13:15:43;-19074.25;;;31.39;32.43
60583;BME280;46415;47.536;19.066;2023-09-12T13:18:48;-19077.72;;;31.52;32.23
60583;BME280;46415;47.536;19.066;2023-09-12T13:21:58;-19081.34;;;31.66;32.19
60583;BME280;46415;47.536;19.066;2023-09-12T13:25:06;-19083.91;;;31.75;32.53
60583;BME280;46415;47.536;19.066;2023-09-12T13:28:15;-19083.22;;;31.73;32.08
60583;BME280;46415;47.536;19.066;2023-09-12T13:31:20;-19082.44;;;31.70;31.05
60583;BME280;46415;47.536;19.066;2023-09-12T13:34:26;-19080.16;;;31.61;31.37
60583;BME280;46415;47.536;19.066;2023-09-12T13:37:31;-19083.38;;;31.73;30.95
60583;BME280;46415;47.536;19.066;2023-09-12T13:40:38;-19084.72;;;31.78;30.88
60583;BME280;46415;47.536;19.066;2023-09-12T13:43:42;-19084.97;;;31.79;31.25
60583;BME280;46415;47.536;19.066;2023-09-12T13:46:52;-19080.41;;;31.62;31.10
60583;BME280;46415;47.536;19.066;2023-09-12T13:50:02;-19078.00;;;31.53;32.05
60583;BME280;46415;47.536;19.066;2023-09-12T13:53:09;-19082.81;;;31.71;31.95
60583;BME280;46415;47.536;19.066;2023-09-12T13:56:15;-19085.25;;;31.80;32.15
60583;BME280;46415;47.536;19.066;2023-09-12T13:59:24;-19088.72;;;31.93;31.14
60583;BME280;46415;47.536;19.066;2023-09-12T14:02:45;-19092.47;;;32.08;31.16
60583;BME280;46415;47.536;19.066;2023-09-12T14:05:54;-19089.13;;;31.95;30.56
60583;BME280;46415;47.536;19.066;2023-09-12T14:09:03;-19091.53;;;32.04;31.04
60583;BME280;46415;47.536;19.066;2023-09-12T14:12:17;-19092.06;;;32.06;31.16
60583;BME280;46415;47.536;19.066;2023-09-12T14:15:35;-19094.91;;;32.17;30.31
60583;BME280;46415;47.536;19.066;2023-09-12T14:18:45;-19098.25;;;32.29;30.17
60583;BME280;46415;47.536;19.066;2023-09-12T14:21:59;-19098.78;;;32.31;30.94
60583;BME280;46415;47.536;19.066;2023-09-12T14:25:07;-19097.56;;;32.27;29.99
60583;BME280;46415;47.536;19.066;2023-09-12T14:28:16;-19105.47;;;32.57;29.34
60583;BME280;46415;47.536;19.066;2023-09-12T14:31:28;-19114.03;;;32.89;29.49
60583;BME280;46415;47.536;19.066;2023-09-12T14:34:41;-19109.63;;;32.72;29.02
60583;BME280;46415;47.536;19.066;2023-09-12T14:37:53;-19101.06;;;32.40;29.31
60583;BME280;46415;47.536;19.066;2023-09-12T14:41:03;-19104.41;;;32.53;29.28
60583;BME280;46415;47.536;19.066;2023-09-12T14:44:15;-19105.34;;;32.56;28.90
60583;BME280;46415;47.536;19.066;2023-09-12T14:47:23;-19110.03;;;32.74;30.03
60583;BME280;46415;47.536;19.066;2023-09-12T14:50:33;-19118.31;;;33.05;28.88
60583;BME280;46415;47.536;19.066;2023-09-12T14:53:48;-19117.66;;;33.03;28.61
60583;BME280;46415;47.536;19.066;2023-09-12T14:57:00;-19119.53;;;33.10;28.73
60583;BME280;46415;47.536;19.066;2023-09-12T15:00:13;-19119.81;;;33.11;28.41
60583;BME280;46415;47.536;19.066;2023-09-12T15:03:28;-19121.28;;;33.16;27.58
60583;BME280;46415;47.536;19.066;2023-09-12T15:06:47;-19120.47;;;33.13;28.72
60583;BME280;46415;47.536;19.066;2023-09-12T15:09:56;-19123.81;;;33.26;28.44
60583;BME280;46415;47.536;19.066;2023-09-12T15:13:07;-19131.97;;;33.57;27.86
60583;BME280;46415;47.536;19.066;2023-09-12T15:16:18;-19136.66;;;33.75;28.31
60583;BME280;46415;47.536;19.066;2023-09-12T15:19:27;-19151.63;;;34.31;28.01
60583;BME280;46415;47.536;19.066;2023-09-12T15:22:44;-19163.25;;;34.75;26.77
60583;BME280;46415;47.536;19.066;2023-09-12T15:25:56;-19178.87;;;35.35;25.74
60583;BME280;46415;47.536;19.066;2023-09-12T15:29:08;-19198.34;;;36.09;26.56
60583;BME280;46415;47.536;19.066;2023-09-12T15:32:18;-19219.69;;;36.90;23.76
60583;BME280;46415;47.536;19.066;2023-09-12T15:35:30;-19225.53;;;37.12;23.17
60583;BME280;46415;47.536;19.066;2023-09-12T15:38:43;-19234.06;;;37.44;23.46
60583;BME280;46415;47.536;19.066;2023-09-12T15:41:57;-19247.22;;;37.94;22.94
60583;BME280;46415;47.536;19.066;2023-09-12T15:45:06;-19253.75;;;38.19;23.87
60583;BME280;46415;47.536;19.066;2023-09-12T15:48:21;-19249.63;;;38.04;23.32
60583;BME280;46415;47.536;19.066;2023-09-12T15:51:31;-19248.69;;;38.00;24.68
60583;BME280;46415;47.536;19.066;2023-09-12T15:54:46;-19259.59;;;38.42;23.33
60583;BME280;46415;47.536;19.066;2023-09-12T15:58:00;-19256.16;;;38.28;23.38
60583;BME280;46415;47.536;19.066;2023-09-12T16:01:18;-19242.72;;;37.77;24.70
60583;BME280;46415;47.536;19.066;2023-09-12T16:04:31;-19233.66;;;37.43;25.35
60583;BME280;46415;47.536;19.066;2023-09-12T16:07:45;-19222.22;;;36.99;25.46
60583;BME280;46415;47.536;19.066;2023-09-12T16:10:59;-19199.69;;;36.14;26.69
60583;BME280;46415;47.536;19.066;2023-09-12T16:14:14;-19175.00;;;35.20;27.01
60583;BME280;46415;47.536;19.066;2023-09-12T16:17:26;-19152.16;;;34.33;28.49
60583;BME280;46415;47.536;19.066;2023-09-12T16:20:38;-19130.50;;;33.51;30.27
60583;BME280;46415;47.536;19.066;2023-09-12T16:23:51;-19108.97;;;32.70;32.03
60583;BME280;46415;47.536;19.066;2023-09-12T16:27:04;-19085.78;;;31.82;34.51